sensor_id;sensor_type;location;lat;lon;timestamp;P1;durP1;ratioP1;P2;durP2;ratioP2
21860;SDS011;11095;48.066;8.540;2023-07-13T00:02:16;2.28;;;1.10;;
21860;SDS011;11095;48.066;8.540;2023-07-13T00:04:41;2.05;;;1.30;;
21860;SDS011;11095;48.066;8.540;2023-07-13T00:07:07;1.65;;;1.35;;
21860;SDS011;11095;48.066;8.540;2023-07-13T00:09:33;1.75;;;1.20;;
21860;SDS011;11095;48.066;8.540;2023-07-13T00:11:59;2.45;;;1.38;;
21860;SDS011;11095;48.066;8.540;2023-07-13T00:14:26;1.92;;;1.10;;
21860;SDS011;11095;48.066;8.540;2023-07-13T00:16:53;1.50;;;1.00;;
21860;SDS011;11095;48.066;8.540;2023-07-13T00:19:20;1.40;;;1.20;;
21860;SDS011;11095;48.066;8.540;2023-07-13T00:21:46;1.65;;;1.10;;
21860;SDS011;11095;48.066;8.540;2023-07-13T00:24:14;1.85;;;1.30;;
21860;SDS011;11095;48.066;8.540;2023-07-13T00:26:41;1.98;;;1.00;;
21860;SDS011;11095;48.066;8.540;2023-07-13T00:29:11;2.17;;;1.02;;
21860;SDS011;11095;48.066;8.540;2023-07-13T00:31:37;2.45;;;1.00;;
21860;SDS011;11095;48.066;8.540;2023-07-13T00:34:03;1.65;;;1.00;;
21860;SDS011;11095;48.066;8.540;2023-07-13T00:36:29;1.90;;;1.20;;
21860;SDS011;11095;48.066;8.540;2023-07-13T00:38:55;2.15;;;1.10;;
21860;SDS011;11095;48.066;8.540;2023-07-13T00:41:21;1.40;;;1.17;;
21860;SDS011;11095;48.066;8.540;2023-07-13T00:43:47;1.67;;;1.17;;
21860;SDS011;11095;48.066;8.540;2023-07-13T00:46:20;1.83;;;1.10;;
21860;SDS011;11095;48.066;8.540;2023-07-13T00:48:47;1.33;;;1.00;;
21860;SDS011;11095;48.066;8.540;2023-07-13T00:51:15;1.15;;;1.00;;
21860;SDS011;11095;48.066;8.540;2023-07-13T00:53:45;2.47;;;1.05;;
21860;SDS011;11095;48.066;8.540;2023-07-13T00:56:11;1.98;;;1.30;;
21860;SDS011;11095;48.066;8.540;2023-07-13T00:58:37;1.42;;;1.08;;
21860;SDS011;11095;48.066;8.540;2023-07-13T01:01:03;1.90;;;1.10;;
21860;SDS011;11095;48.066;8.540;2023-07-13T01:03:29;2.33;;;1.20;;
21860;SDS011;11095;48.066;8.540;2023-07-13T01:05:54;1.35;;;1.00;;
21860;SDS011;11095;48.066;8.540;2023-07-13T01:08:21;2.78;;;1.20;;
21860;SDS011;11095;48.066;8.540;2023-07-13T01:10:50;1.63;;;0.93;;
21860;SDS011;11095;48.066;8.540;2023-07-13T01:13:20;1.77;;;1.23;;
21860;SDS011;11095;48.066;8.540;2023-07-13T01:15:46;0.95;;;0.90;;
21860;SDS011;11095;48.066;8.540;2023-07-13T01:18:23;1.15;;;1.05;;
21860;SDS011;11095;48.066;8.540;2023-07-13T01:20:58;3.03;;;1.17;;
21860;SDS011;11095;48.066;8.540;2023-07-13T01:23:26;1.33;;;1.00;;
21860;SDS011;11095;48.066;8.540;2023-07-13T01:25:53;1.35;;;0.90;;
21860;SDS011;11095;48.066;8.540;2023-07-13T01:28:20;1.63;;;1.02;;
21860;SDS011;11095;48.066;8.540;2023-07-13T01:30:47;2.10;;;1.00;;
21860;SDS011;11095;48.066;8.540;2023-07-13T01:33:13;1.33;;;1.00;;
21860;SDS011;11095;48.066;8.540;2023-07-13T01:35:41;1.85;;;1.00;;
21860;SDS011;11095;48.066;8.540;2023-07-13T01:38:08;2.75;;;1.20;;
21860;SDS011;11095;48.066;8.540;2023-07-13T01:40:36;2.33;;;1.10;;
21860;SDS011;11095;48.066;8.540;2023-07-13T01:43:03;1.20;;;0.90;;
21860;SDS011;11095;48.066;8.540;2023-07-13T01:45:29;2.03;;;0.88;;
21860;SDS011;11095;48.066;8.540;2023-07-13T01:47:54;1.85;;;1.10;;
21860;SDS011;11095;48.066;8.540;2023-07-13T01:50:20;1.52;;;1.02;;
21860;SDS011;11095;48.066;8.540;2023-07-13T01:52:46;1.02;;;0.80;;
21860;SDS011;11095;48.066;8.540;2023-07-13T01:55:11;1.20;;;1.00;;
21860;SDS011;11095;48.066;8.540;2023-07-13T01:57:37;1.95;;;1.10;;
21860;SDS011;11095;48.066;8.540;2023-07-13T02:00:03;1.30;;;1.00;;
21860;SDS011;11095;48.066;8.540;2023-07-13T02:02:30;1.20;;;0.90;;
21860;SDS011;11095;48.066;8.540;2023-07-13T02:04:56;2.58;;;1.20;;
21860;SDS011;11095;48.066;8.540;2023-07-13T02:07:21;3.40;;;1.45;;
21860;SDS011;11095;48.066;8.540;2023-07-13T02:09:47;2.03;;;1.10;;
21860;SDS011;11095;48.066;8.540;2023-07-13T02:12:13;6.35;;;2.13;;
21860;SDS011;11095;48.066;8.540;2023-07-13T02:14:38;3.10;;;2.13;;
21860;SDS011;11095;48.066;8.540;2023-07-13T02:17:04;2.92;;;1.63;;
21860;SDS011;11095;48.066;8.540;2023-07-13T02:19:31;1.50;;;1.20;;
21860;SDS011;11095;48.066;8.540;2023-07-13T02:21:56;2.60;;;0.95;;
21860;SDS011;11095;48.066;8.540;2023-07-13T02:24:22;2.55;;;1.10;;
21860;SDS011;11095;48.066;8.540;2023-07-13T02:26:48;2.25;;;1.15;;
21860;SDS011;11095;48.066;8.540;2023-07-13T02:29:13;3.35;;;1.17;;
21860;SDS011;11095;48.066;8.540;2023-07-13T02:31:39;2.72;;;1.60;;
21860;SDS011;11095;48.066;8.540;2023-07-13T02:34:05;6.00;;;2.90;;
21860;SDS011;11095;48.066;8.540;2023-07-13T02:36:31;4.65;;;2.70;;
21860;SDS011;11095;48.066;8.540;2023-07-13T02:38:57;3.22;;;1.55;;
21860;SDS011;11095;48.066;8.540;2023-07-13T02:41:25;2.42;;;1.20;;
21860;SDS011;11095;48.066;8.540;2023-07-13T02:43:51;2.30;;;1.30;;
21860;SDS011;11095;48.066;8.540;2023-07-13T02:46:17;2.55;;;1.35;;
21860;SDS011;11095;48.066;8.540;2023-07-13T02:48:44;2.40;;;1.45;;
21860;SDS011;11095;48.066;8.540;2023-07-13T02:51:10;3.60;;;1.80;;
21860;SDS011;11095;48.066;8.540;2023-07-13T02:53:36;7.82;;;4.15;;
21860;SDS011;11095;48.066;8.540;2023-07-13T02:56:02;18.63;;;8.25;;
21860;SDS011;11095;48.066;8.540;2023-07-13T02:58:28;16.95;;;7.78;;
21860;SDS011;11095;48.066;8.540;2023-07-13T03:00:55;14.65;;;6.93;;
21860;SDS011;11095;48.066;8.540;2023-07-13T03:03:21;6.68;;;3.05;;
21860;SDS011;11095;48.066;8.540;2023-07-13T03:05:46;2.70;;;1.33;;
21860;SDS011;11095;48.066;8.540;2023-07-13T03:08:15;1.90;;;1.02;;
21860;SDS011;11095;48.066;8.540;2023-07-13T03:10:41;9.45;;;4.72;;
21860;SDS011;11095;48.066;8.540;2023-07-13T03:13:06;13.65;;;7.40;;
21860;SDS011;11095;48.066;8.540;2023-07-13T03:15:32;15.80;;;7.63;;
21860;SDS011;11095;48.066;8.540;2023-07-13T03:17:58;18.42;;;9.32;;
21860;SDS011;11095;48.066;8.540;2023-07-13T03:20:23;8.18;;;4.18;;
21860;SDS011;11095;48.066;8.540;2023-07-13T03:22:49;5.75;;;1.85;;
21860;SDS011;11095;48.066;8.540;2023-07-13T03:25:14;2.28;;;1.40;;
21860;SDS011;11095;48.066;8.540;2023-07-13T03:27:40;2.97;;;1.40;;
21860;SDS011;11095;48.066;8.540;2023-07-13T03:30:06;2.20;;;1.40;;
21860;SDS011;11095;48.066;8.540;2023-07-13T03:32:32;5.30;;;1.30;;
21860;SDS011;11095;48.066;8.540;2023-07-13T03:34:58;2.40;;;1.30;;
21860;SDS011;11095;48.066;8.540;2023-07-13T03:37:23;4.93;;;1.20;;
21860;SDS011;11095;48.066;8.540;2023-07-13T03:39:49;2.72;;;1.30;;
21860;SDS011;11095;48.066;8.540;2023-07-13T03:42:15;2.45;;;1.35;;
21860;SDS011;11095;48.066;8.540;2023-07-13T03:44:41;6.03;;;2.83;;
21860;SDS011;11095;48.066;8.540;2023-07-13T03:47:07;3.55;;;2.10;;
21860;SDS011;11095;48.066;8.540;2023-07-13T03:49:34;4.50;;;2.03;;
21860;SDS011;11095;48.066;8.540;2023-07-13T03:51:59;4.90;;;2.70;;
21860;SDS011;11095;48.066;8.540;2023-07-13T03:54:25;7.03;;;3.63;;
21860;SDS011;11095;48.066;8.540;2023-07-13T03:56:51;6.30;;;3.00;;
21860;SDS011;11095;48.066;8.540;2023-07-13T03:59:16;6.80;;;3.03;;
21860;SDS011;11095;48.066;8.540;2023-07-13T04:01:43;3.20;;;1.80;;
21860;SDS011;11095;48.066;8.540;2023-07-13T04:04:09;1.70;;;1.40;;
21860;SDS011;11095;48.066;8.540;2023-07-13T04:06:35;2.13;;;1.50;;
21860;SDS011;11095;48.066;8.540;2023-07-13T04:09:00;2.47;;;1.40;;
21860;SDS011;11095;48.066;8.540;2023-07-13T04:13:56;2.15;;;1.30;;
21860;SDS011;11095;48.066;8.540;2023-07-13T04:16:22;1.65;;;1.30;;
21860;SDS011;11095;48.066;8.540;2023-07-13T04:18:48;2.22;;;1.60;;
21860;SDS011;11095;48.066;8.540;2023-07-13T04:21:15;4.55;;;2.60;;
21860;SDS011;11095;48.066;8.540;2023-07-13T04:23:41;6.75;;;3.63;;
21860;SDS011;11095;48.066;8.540;2023-07-13T04:26:06;7.22;;;3.50;;
21860;SDS011;11095;48.066;8.540;2023-07-13T04:28:32;6.70;;;3.50;;
21860;SDS011;11095;48.066;8.540;2023-07-13T04:30:59;2.78;;;1.77;;
21860;SDS011;11095;48.066;8.540;2023-07-13T04:33:25;2.00;;;1.50;;
21860;SDS011;11095;48.066;8.540;2023-07-13T04:35:52;3.47;;;1.70;;
21860;SDS011;11095;48.066;8.540;2023-07-13T04:38:21;4.28;;;1.50;;
21860;SDS011;11095;48.066;8.540;2023-07-13T04:40:49;3.08;;;1.52;;
21860;SDS011;11095;48.066;8.540;2023-07-13T04:43:16;2.67;;;1.65;;
21860;SDS011;11095;48.066;8.540;2023-07-13T04:45:41;2.67;;;1.60;;
21860;SDS011;11095;48.066;8.540;2023-07-13T04:48:07;4.05;;;1.80;;
21860;SDS011;11095;48.066;8.540;2023-07-13T04:50:32;3.55;;;1.88;;
21860;SDS011;11095;48.066;8.540;2023-07-13T04:53:01;3.33;;;1.90;;
21860;SDS011;11095;48.066;8.540;2023-07-13T04:55:27;3.97;;;1.80;;
21860;SDS011;11095;48.066;8.540;2023-07-13T04:57:55;6.88;;;1.90;;
21860;SDS011;11095;48.066;8.540;2023-07-13T05:00:21;6.18;;;1.95;;
21860;SDS011;11095;48.066;8.540;2023-07-13T05:02:47;7.22;;;2.42;;
21860;SDS011;11095;48.066;8.540;2023-07-13T05:05:13;5.25;;;2.20;;
21860;SDS011;11095;48.066;8.540;2023-07-13T05:07:38;5.68;;;2.13;;
21860;SDS011;11095;48.066;8.540;2023-07-13T05:10:04;3.67;;;1.77;;
21860;SDS011;11095;48.066;8.540;2023-07-13T05:12:30;4.68;;;2.28;;
21860;SDS011;11095;48.066;8.540;2023-07-13T05:14:56;6.45;;;2.67;;
21860;SDS011;11095;48.066;8.540;2023-07-13T05:17:21;4.72;;;2.10;;
21860;SDS011;11095;48.066;8.540;2023-07-13T05:19:47;2.90;;;1.60;;
21860;SDS011;11095;48.066;8.540;2023-07-13T05:22:13;3.35;;;1.25;;
21860;SDS011;11095;48.066;8.540;2023-07-13T05:24:38;1.77;;;1.10;;
21860;SDS011;11095;48.066;8.540;2023-07-13T05:27:04;2.17;;;1.05;;
21860;SDS011;11095;48.066;8.540;2023-07-13T05:29:30;2.00;;;1.35;;
21860;SDS011;11095;48.066;8.540;2023-07-13T05:31:55;3.42;;;1.48;;
21860;SDS011;11095;48.066;8.540;2023-07-13T05:34:21;2.35;;;1.20;;
21860;SDS011;11095;48.066;8.540;2023-07-13T05:36:47;1.65;;;1.20;;
21860;SDS011;11095;48.066;8.540;2023-07-13T05:39:13;1.35;;;0.90;;
21860;SDS011;11095;48.066;8.540;2023-07-13T05:41:39;4.80;;;1.23;;
21860;SDS011;11095;48.066;8.540;2023-07-13T05:44:04;3.70;;;1.17;;
21860;SDS011;11095;48.066;8.540;2023-07-13T05:46:30;2.60;;;1.20;;
21860;SDS011;11095;48.066;8.540;2023-07-13T05:48:56;3.67;;;1.00;;
21860;SDS011;11095;48.066;8.540;2023-07-13T05:51:21;2.83;;;1.20;;
21860;SDS011;11095;48.066;8.540;2023-07-13T05:53:47;2.38;;;1.10;;
21860;SDS011;11095;48.066;8.540;2023-07-13T05:56:12;4.10;;;1.42;;
21860;SDS011;11095;48.066;8.540;2023-07-13T05:58:38;3.30;;;1.30;;
21860;SDS011;11095;48.066;8.540;2023-07-13T06:01:05;4.18;;;1.40;;
21860;SDS011;11095;48.066;8.540;2023-07-13T06:03:34;2.70;;;1.30;;
21860;SDS011;11095;48.066;8.540;2023-07-13T06:05:59;2.55;;;1.15;;
21860;SDS011;11095;48.066;8.540;2023-07-13T06:08:25;3.92;;;1.40;;
21860;SDS011;11095;48.066;8.540;2023-07-13T06:10:52;2.15;;;0.98;;
21860;SDS011;11095;48.066;8.540;2023-07-13T06:13:17;2.15;;;1.02;;
21860;SDS011;11095;48.066;8.540;2023-07-13T06:15:47;2.15;;;1.10;;
21860;SDS011;11095;48.066;8.540;2023-07-13T06:18:16;1.60;;;0.85;;
21860;SDS011;11095;48.066;8.540;2023-07-13T06:20:42;1.30;;;0.80;;
21860;SDS011;11095;48.066;8.540;2023-07-13T06:23:07;2.03;;;1.00;;
21860;SDS011;11095;48.066;8.540;2023-07-13T06:25:33;2.45;;;1.20;;
21860;SDS011;11095;48.066;8.540;2023-07-13T06:27:59;3.13;;;1.00;;
21860;SDS011;11095;48.066;8.540;2023-07-13T06:30:25;3.78;;;1.25;;
21860;SDS011;11095;48.066;8.540;2023-07-13T06:32:51;3.05;;;1.00;;
21860;SDS011;11095;48.066;8.540;2023-07-13T06:35:17;3.17;;;1.00;;
21860;SDS011;11095;48.066;8.540;2023-07-13T06:37:43;4.15;;;1.05;;
21860;SDS011;11095;48.066;8.540;2023-07-13T06:40:08;3.85;;;1.00;;
21860;SDS011;11095;48.066;8.540;2023-07-13T06:42:34;4.93;;;1.13;;
21860;SDS011;11095;48.066;8.540;2023-07-13T06:45:00;1.95;;;1.00;;
21860;SDS011;11095;48.066;8.540;2023-07-13T06:49:54;1.45;;;0.70;;
21860;SDS011;11095;48.066;8.540;2023-07-13T06:52:20;2.78;;;0.80;;
21860;SDS011;11095;48.066;8.540;2023-07-13T06:54:46;1.67;;;0.90;;
21860;SDS011;11095;48.066;8.540;2023-07-13T06:57:11;2.28;;;0.80;;
21860;SDS011;11095;48.066;8.540;2023-07-13T06:59:37;2.35;;;0.98;;
21860;SDS011;11095;48.066;8.540;2023-07-13T07:02:02;3.17;;;1.20;;
21860;SDS011;11095;48.066;8.540;2023-07-13T07:04:28;3.03;;;1.00;;
21860;SDS011;11095;48.066;8.540;2023-07-13T07:06:54;3.22;;;0.95;;
21860;SDS011;11095;48.066;8.540;2023-07-13T07:09:19;3.53;;;1.02;;
21860;SDS011;11095;48.066;8.540;2023-07-13T07:11:45;3.55;;;0.88;;
21860;SDS011;11095;48.066;8.540;2023-07-13T07:14:11;2.70;;;0.80;;
21860;SDS011;11095;48.066;8.540;2023-07-13T07:16:36;3.75;;;0.98;;
21860;SDS011;11095;48.066;8.540;2023-07-13T07:19:02;1.63;;;0.70;;
21860;SDS011;11095;48.066;8.540;2023-07-13T07:21:27;3.70;;;1.00;;
21860;SDS011;11095;48.066;8.540;2023-07-13T07:23:53;1.60;;;0.70;;
21860;SDS011;11095;48.066;8.540;2023-07-13T07:26:19;2.55;;;0.90;;
21860;SDS011;11095;48.066;8.540;2023-07-13T07:28:44;2.13;;;0.80;;
21860;SDS011;11095;48.066;8.540;2023-07-13T07:31:10;1.58;;;0.80;;
21860;SDS011;11095;48.066;8.540;2023-07-13T07:33:35;1.35;;;0.77;;
21860;SDS011;11095;48.066;8.540;2023-07-13T07:36:01;1.67;;;0.93;;
21860;SDS011;11095;48.066;8.540;2023-07-13T07:38:28;1.92;;;0.77;;
21860;SDS011;11095;48.066;8.540;2023-07-13T07:40:54;1.35;;;0.68;;
21860;SDS011;11095;48.066;8.540;2023-07-13T07:43:19;3.28;;;1.00;;
21860;SDS011;11095;48.066;8.540;2023-07-13T07:45:45;2.40;;;0.80;;
21860;SDS011;11095;48.066;8.540;2023-07-13T07:48:11;1.77;;;1.00;;
21860;SDS011;11095;48.066;8.540;2023-07-13T07:50:37;1.75;;;0.77;;
21860;SDS011;11095;48.066;8.540;2023-07-13T07:53:04;1.58;;;0.80;;
21860;SDS011;11095;48.066;8.540;2023-07-13T07:57:59;1.50;;;0.88;;
21860;SDS011;11095;48.066;8.540;2023-07-13T08:00:24;2.28;;;0.90;;
21860;SDS011;11095;48.066;8.540;2023-07-13T08:02:50;3.15;;;1.05;;
21860;SDS011;11095;48.066;8.540;2023-07-13T08:05:15;3.38;;;0.85;;
21860;SDS011;11095;48.066;8.540;2023-07-13T08:07:41;2.35;;;0.90;;
21860;SDS011;11095;48.066;8.540;2023-07-13T08:10:07;1.70;;;0.90;;
21860;SDS011;11095;48.066;8.540;2023-07-13T08:12:36;2.70;;;1.00;;
21860;SDS011;11095;48.066;8.540;2023-07-13T08:15:03;2.08;;;1.00;;
21860;SDS011;11095;48.066;8.540;2023-07-13T08:17:30;2.50;;;1.13;;
21860;SDS011;11095;48.066;8.540;2023-07-13T08:19:56;2.65;;;0.88;;
21860;SDS011;11095;48.066;8.540;2023-07-13T08:22:22;2.35;;;0.90;;
21860;SDS011;11095;48.066;8.540;2023-07-13T08:24:47;1.98;;;0.80;;
21860;SDS011;11095;48.066;8.540;2023-07-13T08:27:20;1.92;;;0.88;;
21860;SDS011;11095;48.066;8.540;2023-07-13T08:29:47;1.45;;;0.80;;
21860;SDS011;11095;48.066;8.540;2023-07-13T08:32:13;2.20;;;0.90;;
21860;SDS011;11095;48.066;8.540;2023-07-13T08:34:39;1.42;;;0.75;;
21860;SDS011;11095;48.066;8.540;2023-07-13T08:37:05;1.92;;;0.98;;
21860;SDS011;11095;48.066;8.540;2023-07-13T08:39:32;1.95;;;0.80;;
21860;SDS011;11095;48.066;8.540;2023-07-13T08:42:00;3.42;;;0.80;;
21860;SDS011;11095;48.066;8.540;2023-07-13T08:47:36;1.75;;;1.02;;
21860;SDS011;11095;48.066;8.540;2023-07-13T08:50:10;2.42;;;0.60;;
21860;SDS011;11095;48.066;8.540;2023-07-13T08:52:39;2.78;;;1.00;;
21860;SDS011;11095;48.066;8.540;2023-07-13T08:55:16;4.03;;;1.10;;
21860;SDS011;11095;48.066;8.540;2023-07-13T08:57:43;3.28;;;1.02;;
21860;SDS011;11095;48.066;8.540;2023-07-13T09:00:12;1.40;;;0.80;;
21860;SDS011;11095;48.066;8.540;2023-07-13T09:05:26;2.60;;;1.10;;
21860;SDS011;11095;48.066;8.540;2023-07-13T09:10:46;2.67;;;1.10;;
21860;SDS011;11095;48.066;8.540;2023-07-13T09:15:45;1.63;;;0.80;;
21860;SDS011;11095;48.066;8.540;2023-07-13T09:18:15;2.67;;;0.88;;
21860;SDS011;11095;48.066;8.540;2023-07-13T09:20:50;1.63;;;0.90;;
21860;SDS011;11095;48.066;8.540;2023-07-13T09:23:22;1.38;;;0.80;;
21860;SDS011;11095;48.066;8.540;2023-07-13T09:25:51;1.50;;;0.90;;
21860;SDS011;11095;48.066;8.540;2023-07-13T09:28:29;1.67;;;1.00;;
21860;SDS011;11095;48.066;8.540;2023-07-13T09:31:22;1.85;;;1.15;;
21860;SDS011;11095;48.066;8.540;2023-07-13T09:36:27;2.15;;;1.00;;
21860;SDS011;11095;48.066;8.540;2023-07-13T09:41:38;2.78;;;1.23;;
21860;SDS011;11095;48.066;8.540;2023-07-13T09:47:02;1.98;;;0.90;;
21860;SDS011;11095;48.066;8.540;2023-07-13T09:49:35;1.50;;;0.82;;
21860;SDS011;11095;48.066;8.540;2023-07-13T09:52:06;2.72;;;0.82;;
21860;SDS011;11095;48.066;8.540;2023-07-13T09:54:36;3.05;;;0.90;;
21860;SDS011;11095;48.066;8.540;2023-07-13T09:57:03;2.05;;;0.90;;
21860;SDS011;11095;48.066;8.540;2023-07-13T09:59:43;1.50;;;0.90;;
21860;SDS011;11095;48.066;8.540;2023-07-13T10:02:27;1.50;;;0.90;;
21860;SDS011;11095;48.066;8.540;2023-07-13T10:05:05;2.95;;;1.00;;
21860;SDS011;11095;48.066;8.540;2023-07-13T10:07:35;2.28;;;0.88;;
21860;SDS011;11095;48.066;8.540;2023-07-13T10:10:12;2.60;;;1.10;;
21860;SDS011;11095;48.066;8.540;2023-07-13T10:12:43;4.50;;;1.10;;
21860;SDS011;11095;48.066;8.540;2023-07-13T10:15:13;2.78;;;1.10;;
21860;SDS011;11095;48.066;8.540;2023-07-13T10:17:44;2.42;;;0.95;;
21860;SDS011;11095;48.066;8.540;2023-07-13T10:20:11;3.92;;;1.10;;
21860;SDS011;11095;48.066;8.540;2023-07-13T10:22:54;1.63;;;1.10;;
21860;SDS011;11095;48.066;8.540;2023-07-13T10:25:39;1.30;;;1.05;;
21860;SDS011;11095;48.066;8.540;2023-07-13T10:31:00;2.70;;;1.20;;
21860;SDS011;11095;48.066;8.540;2023-07-13T10:33:27;2.53;;;1.27;;
21860;SDS011;11095;48.066;8.540;2023-07-13T10:35:55;2.67;;;1.13;;
21860;SDS011;11095;48.066;8.540;2023-07-13T10:38:40;3.22;;;1.25;;
21860;SDS011;11095;48.066;8.540;2023-07-13T10:41:08;3.42;;;1.20;;
21860;SDS011;11095;48.066;8.540;2023-07-13T10:43:43;1.70;;;1.10;;
21860;SDS011;11095;48.066;8.540;2023-07-13T10:46:15;3.10;;;1.10;;
21860;SDS011;11095;48.066;8.540;2023-07-13T10:48:44;2.33;;;1.02;;
21860;SDS011;11095;48.066;8.540;2023-07-13T10:51:13;2.47;;;0.88;;
21860;SDS011;11095;48.066;8.540;2023-07-13T10:53:40;3.78;;;1.00;;
21860;SDS011;11095;48.066;8.540;2023-07-13T10:56:10;3.83;;;1.30;;
21860;SDS011;11095;48.066;8.540;2023-07-13T11:01:40;1.45;;;0.90;;
21860;SDS011;11095;48.066;8.540;2023-07-13T11:04:18;3.10;;;0.98;;
21860;SDS011;11095;48.066;8.540;2023-07-13T11:06:46;4.78;;;1.10;;
21860;SDS011;11095;48.066;8.540;2023-07-13T11:09:34;2.60;;;1.20;;
21860;SDS011;11095;48.066;8.540;2023-07-13T11:12:02;2.30;;;1.10;;
21860;SDS011;11095;48.066;8.540;2023-07-13T11:15:05;1.73;;;0.85;;
21860;SDS011;11095;48.066;8.540;2023-07-13T11:17:35;1.55;;;1.08;;
21860;SDS011;11095;48.066;8.540;2023-07-13T11:25:42;2.33;;;1.20;;
21860;SDS011;11095;48.066;8.540;2023-07-13T11:38:43;1.70;;;1.00;;
21860;SDS011;11095;48.066;8.540;2023-07-13T11:43:53;1.20;;;0.90;;
21860;SDS011;11095;48.066;8.540;2023-07-13T11:46:27;1.52;;;0.82;;
21860;SDS011;11095;48.066;8.540;2023-07-13T11:48:53;1.63;;;1.08;;
21860;SDS011;11095;48.066;8.540;2023-07-13T11:51:31;2.17;;;1.05;;
21860;SDS011;11095;48.066;8.540;2023-07-13T11:54:13;2.20;;;0.90;;
21860;SDS011;11095;48.066;8.540;2023-07-13T11:56:55;2.47;;;0.98;;
21860;SDS011;11095;48.066;8.540;2023-07-13T11:59:26;1.80;;;0.80;;
21860;SDS011;11095;48.066;8.540;2023-07-13T12:01:54;1.25;;;0.80;;
21860;SDS011;11095;48.066;8.540;2023-07-13T12:04:22;2.00;;;0.90;;
21860;SDS011;11095;48.066;8.540;2023-07-13T12:06:56;2.28;;;0.90;;
21860;SDS011;11095;48.066;8.540;2023-07-13T12:09:28;1.45;;;0.80;;
21860;SDS011;11095;48.066;8.540;2023-07-13T12:11:56;1.65;;;0.90;;
21860;SDS011;11095;48.066;8.540;2023-07-13T12:14:23;1.70;;;1.10;;
21860;SDS011;11095;48.066;8.540;2023-07-13T12:16:51;1.60;;;0.90;;
21860;SDS011;11095;48.066;8.540;2023-07-13T12:19:19;1.13;;;0.90;;
21860;SDS011;11095;48.066;8.540;2023-07-13T12:21:47;1.35;;;0.95;;
21860;SDS011;11095;48.066;8.540;2023-07-13T12:24:14;1.67;;;1.15;;
21860;SDS011;11095;48.066;8.540;2023-07-13T12:27:03;2.67;;;1.05;;
21860;SDS011;11095;48.066;8.540;2023-07-13T12:29:31;1.77;;;1.05;;
21860;SDS011;11095;48.066;8.540;2023-07-13T12:31:58;2.30;;;1.30;;
21860;SDS011;11095;48.066;8.540;2023-07-13T12:34:24;2.45;;;1.20;;
21860;SDS011;11095;48.066;8.540;2023-07-13T12:36:55;2.35;;;1.00;;
21860;SDS011;11095;48.066;8.540;2023-07-13T12:44:53;1.92;;;1.30;;
21860;SDS011;11095;48.066;8.540;2023-07-13T12:47:41;1.73;;;1.27;;
21860;SDS011;11095;48.066;8.540;2023-07-13T12:50:18;2.45;;;1.30;;
21860;SDS011;11095;48.066;8.540;2023-07-13T12:52:51;2.00;;;1.10;;
21860;SDS011;11095;48.066;8.540;2023-07-13T12:55:19;4.90;;;2.47;;
21860;SDS011;11095;48.066;8.540;2023-07-13T12:57:50;1.60;;;1.08;;
21860;SDS011;11095;48.066;8.540;2023-07-13T13:02:48;2.58;;;1.17;;
21860;SDS011;11095;48.066;8.540;2023-07-13T13:05:15;2.10;;;1.02;;
21860;SDS011;11095;48.066;8.540;2023-07-13T13:07:41;1.25;;;1.00;;
21860;SDS011;11095;48.066;8.540;2023-07-13T13:10:11;1.80;;;0.80;;
21860;SDS011;11095;48.066;8.540;2023-07-13T13:12:38;1.48;;;0.90;;
21860;SDS011;11095;48.066;8.540;2023-07-13T13:15:07;3.58;;;1.33;;
21860;SDS011;11095;48.066;8.540;2023-07-13T13:17:33;1.75;;;1.02;;
21860;SDS011;11095;48.066;8.540;2023-07-13T13:19:59;2.05;;;1.10;;
21860;SDS011;11095;48.066;8.540;2023-07-13T13:22:25;3.30;;;1.15;;
21860;SDS011;11095;48.066;8.540;2023-07-13T13:24:51;1.48;;;1.00;;
21860;SDS011;11095;48.066;8.540;2023-07-13T13:27:17;1.42;;;1.02;;
21860;SDS011;11095;48.066;8.540;2023-07-13T13:29:45;2.20;;;1.10;;
21860;SDS011;11095;48.066;8.540;2023-07-13T13:32:11;1.73;;;1.00;;
21860;SDS011;11095;48.066;8.540;2023-07-13T13:34:38;2.05;;;1.00;;
21860;SDS011;11095;48.066;8.540;2023-07-13T13:37:04;2.25;;;1.08;;
21860;SDS011;11095;48.066;8.540;2023-07-13T13:39:43;2.63;;;0.97;;
21860;SDS011;11095;48.066;8.540;2023-07-13T13:42:09;1.02;;;0.80;;
21860;SDS011;11095;48.066;8.540;2023-07-13T13:44:35;1.42;;;1.00;;
21860;SDS011;11095;48.066;8.540;2023-07-13T13:47:01;3.90;;;0.90;;
21860;SDS011;11095;48.066;8.540;2023-07-13T13:49:27;1.15;;;0.80;;
21860;SDS011;11095;48.066;8.540;2023-07-13T13:51:55;1.40;;;0.80;;
21860;SDS011;11095;48.066;8.540;2023-07-13T13:54:22;1.50;;;0.80;;
21860;SDS011;11095;48.066;8.540;2023-07-13T13:56:49;1.40;;;0.90;;
21860;SDS011;11095;48.066;8.540;2023-07-13T13:59:16;0.93;;;0.70;;
21860;SDS011;11095;48.066;8.540;2023-07-13T14:01:42;0.82;;;0.70;;
21860;SDS011;11095;48.066;8.540;2023-07-13T14:04:13;1.20;;;0.70;;
21860;SDS011;11095;48.066;8.540;2023-07-13T14:06:42;1.25;;;0.80;;
21860;SDS011;11095;48.066;8.540;2023-07-13T14:09:12;2.35;;;0.90;;
21860;SDS011;11095;48.066;8.540;2023-07-13T14:11:41;1.15;;;0.80;;
21860;SDS011;11095;48.066;8.540;2023-07-13T14:14:18;1.20;;;0.82;;
21860;SDS011;11095;48.066;8.540;2023-07-13T14:16:49;3.00;;;1.02;;
21860;SDS011;11095;48.066;8.540;2023-07-13T14:19:18;1.90;;;0.82;;
21860;SDS011;11095;48.066;8.540;2023-07-13T14:21:44;1.10;;;0.90;;
21860;SDS011;11095;48.066;8.540;2023-07-13T14:24:12;3.20;;;1.10;;
21860;SDS011;11095;48.066;8.540;2023-07-13T14:26:38;2.03;;;1.10;;
21860;SDS011;11095;48.066;8.540;2023-07-13T14:29:11;3.55;;;1.20;;
21860;SDS011;11095;48.066;8.540;2023-07-13T14:31:39;1.23;;;1.00;;
21860;SDS011;11095;48.066;8.540;2023-07-13T14:34:05;2.00;;;0.88;;
21860;SDS011;11095;48.066;8.540;2023-07-13T14:36:31;3.42;;;1.08;;
21860;SDS011;11095;48.066;8.540;2023-07-13T14:39:00;2.78;;;1.15;;
21860;SDS011;11095;48.066;8.540;2023-07-13T14:41:34;1.98;;;1.10;;
21860;SDS011;11095;48.066;8.540;2023-07-13T14:43:59;2.67;;;1.10;;
21860;SDS011;11095;48.066;8.540;2023-07-13T14:46:29;1.75;;;1.02;;
21860;SDS011;11095;48.066;8.540;2023-07-13T14:49:01;1.48;;;0.93;;
21860;SDS011;11095;48.066;8.540;2023-07-13T14:51:29;1.95;;;0.93;;
21860;SDS011;11095;48.066;8.540;2023-07-13T14:53:55;1.98;;;1.00;;
21860;SDS011;11095;48.066;8.540;2023-07-13T14:56:21;3.17;;;1.05;;
21860;SDS011;11095;48.066;8.540;2023-07-13T14:58:47;1.85;;;0.90;;
21860;SDS011;11095;48.066;8.540;2023-07-13T15:01:13;1.80;;;0.95;;
21860;SDS011;11095;48.066;8.540;2023-07-13T15:03:44;3.20;;;1.15;;
21860;SDS011;11095;48.066;8.540;2023-07-13T15:06:11;2.25;;;1.20;;
21860;SDS011;11095;48.066;8.540;2023-07-13T15:08:38;3.58;;;1.10;;
21860;SDS011;11095;48.066;8.540;2023-07-13T15:11:05;1.98;;;1.10;;
21860;SDS011;11095;48.066;8.540;2023-07-13T15:13:32;2.42;;;0.90;;
21860;SDS011;11095;48.066;8.540;2023-07-13T15:15:58;2.20;;;0.93;;
21860;SDS011;11095;48.066;8.540;2023-07-13T15:18:24;2.38;;;1.20;;
21860;SDS011;11095;48.066;8.540;2023-07-13T15:20:52;3.42;;;1.10;;
21860;SDS011;11095;48.066;8.540;2023-07-13T15:23:20;3.30;;;1.00;;
21860;SDS011;11095;48.066;8.540;2023-07-13T15:25:47;3.42;;;1.13;;
21860;SDS011;11095;48.066;8.540;2023-07-13T15:28:13;2.92;;;1.10;;
21860;SDS011;11095;48.066;8.540;2023-07-13T15:30:44;2.05;;;1.00;;
21860;SDS011;11095;48.066;8.540;2023-07-13T15:33:19;3.03;;;1.23;;
21860;SDS011;11095;48.066;8.540;2023-07-13T15:35:47;2.45;;;1.20;;
21860;SDS011;11095;48.066;8.540;2023-07-13T15:38:17;2.42;;;1.30;;
21860;SDS011;11095;48.066;8.540;2023-07-13T15:40:48;2.95;;;1.10;;
21860;SDS011;11095;48.066;8.540;2023-07-13T15:43:16;1.85;;;1.20;;
21860;SDS011;11095;48.066;8.540;2023-07-13T15:45:42;3.50;;;1.40;;
21860;SDS011;11095;48.066;8.540;2023-07-13T15:48:20;2.30;;;1.17;;
21860;SDS011;11095;48.066;8.540;2023-07-13T15:50:51;2.42;;;1.10;;
21860;SDS011;11095;48.066;8.540;2023-07-13T15:53:23;3.63;;;1.60;;